Time;durP1;ratioP1;P1;durP2;ratioP2;P2;SDS_P1;SDS_P2;PMS_P1;PMS_P2;Temp;Humidity;BMP_temperature;BMP_pressure;BME280_temperature;BME280_humidity;BME280_pressure;Samples;Min_cycle;Max_cycle;Signal;HPM_P1;HPM_P2
2022/05/29 00:02:39;;;;;;;3.83;0.98;;;;;;;9.91;44.50;95575.44;10363828;28;97092;-69
2022/05/29 00:07:47;;;;;;;3.22;1.10;;;;;;;9.86;45.26;95570.69;10352438;28;99112;-69
2022/05/29 00:12:51;;;;;;;0.98;0.70;;;;;;;9.82;44.72;95567.56;10355236;28;97109;-69
2022/05/29 00:17:54;;;;;;;4.35;0.80;;;;;;;9.70;45.13;95553.19;10360718;28;98473;-69
2022/05/29 00:22:57;;;;;;;2.03;0.80;;;;;;;9.76;45.64;95562.16;10355180;28;100090;-69
2022/05/29 00:28:01;;;;;;;2.40;0.93;;;;;;;9.87;45.62;95559.28;10355784;28;97317;-70
2022/05/29 00:33:05;;;;;;;1.98;1.00;;;;;;;9.97;45.89;95556.50;10368511;28;98331;-68
2022/05/29 00:38:10;;;;;;;2.30;0.80;;;;;;;9.93;45.98;95552.59;10359419;28;99185;-68
2022/05/29 00:43:14;;;;;;;5.63;1.10;;;;;;;9.98;45.62;95556.34;10362607;28;99099;-68
2022/05/29 00:48:18;;;;;;;1.97;0.80;;;;;;;10.16;45.71;95544.94;10360378;28;97782;-69
2022/05/29 00:53:22;;;;;;;1.15;0.60;;;;;;;10.07;46.92;95538.09;10363150;28;97121;-69
2022/05/29 00:58:26;;;;;;;2.53;1.00;;;;;;;10.07;46.38;95536.31;10362740;28;97344;-69
2022/05/29 01:03:29;;;;;;;2.45;0.85;;;;;;;10.24;45.79;95530.09;10355571;28;98322;-69
2022/05/29 01:08:37;;;;;;;4.00;1.00;;;;;;;10.37;46.26;95518.34;10361695;28;96927;-68
2022/05/29 01:13:55;;;;;;;1.02;0.80;;;;;;;10.57;46.29;95522.25;10354087;28;98710;-69
2022/05/29 01:19:13;;;;;;;4.35;1.10;;;;;;;10.58;46.63;95530.91;10362277;28;97745;-69
2022/05/29 01:24:42;;;;;;;2.08;1.05;;;;;;;10.48;46.90;95515.44;10364035;28;96723;-69
2022/05/29 01:29:59;;;;;;;3.17;0.90;;;;;;;10.55;46.44;95520.81;10355891;28;100572;-69
2022/05/29 01:35:07;;;;;;;4.43;1.45;;;;;;;10.53;47.37;95512.31;10360502;28;97706;-68
2022/05/29 01:40:23;;;;;;;3.08;1.15;;;;;;;10.66;47.55;95511.81;10362736;28;97009;-67
2022/05/29 01:45:53;;;;;;;3.05;1.10;;;;;;;10.75;47.39;95510.81;10357951;28;98615;-69
2022/05/29 01:51:00;;;;;;;5.72;1.15;;;;;;;10.82;47.15;95495.28;10356885;28;99910;-69
2022/05/29 01:56:11;;;;;;;2.75;1.20;;;;;;;10.83;47.96;95496.94;10358612;28;98433;-69
2022/05/29 02:01:17;;;;;;;3.67;1.08;;;;;;;10.89;47.52;95502.28;10358507;28;99164;-69
2022/05/29 02:07:47;;;;;;;2.10;0.90;;;;;;;10.96;47.58;95491.97;10358059;28;97003;-69
2022/05/29 02:12:01;;;;;;;3.90;1.40;;;;;;;11.13;47.15;95485.69;10358911;28;97090;-68
2022/05/29 02:17:13;;;;;;;3.58;1.10;;;;;;;11.12;47.29;95480.63;10365629;28;98548;-69
2022/05/29 02:22:23;;;;;;;1.67;0.80;;;;;;;11.08;47.36;95476.75;10362672;28;98495;-69
2022/05/29 02:27:31;;;;;;;4.35;1.20;;;;;;;11.03;47.54;95477.22;10359604;28;98436;-69
2022/05/29 02:32:47;;;;;;;3.20;0.98;;;;;;;11.10;47.57;95469.53;10355929;28;97748;-69
2022/05/29 02:37:56;;;;;;;3.10;1.10;;;;;;;11.09;47.87;95455.66;10355704;28;97027;-69
2022/05/29 02:43:07;;;;;;;2.25;0.98;;;;;;;11.07;47.20;95451.56;10366604;28;96874;-69
2022/05/29 02:48:23;;;;;;;2.72;1.10;;;;;;;11.01;47.66;95452.25;10364016;28;97636;-69
2022/05/29 02:53:26;;;;;;;2.08;0.73;;;;;;;10.91;47.75;95453.28;10364100;28;97487;-69
2022/05/29 02:58:31;;;;;;;1.98;0.77;;;;;;;10.86;47.60;95455.59;10363624;28;97321;-68
2022/05/29 03:03:45;;;;;;;2.67;0.80;;;;;;;10.83;47.29;95450.69;10370059;28;97010;-69
2022/05/29 03:09:02;;;;;;;1.00;0.70;;;;;;;10.79;47.15;95446.78;10354382;28;96915;-68
2022/05/29 03:14:09;;;;;;;3.00;0.90;;;;;;;10.50;47.57;95458.63;10359268;28;97701;-69
2022/05/29 03:19:26;;;;;;;2.05;0.90;;;;;;;10.31;48.45;95453.75;10365337;28;97615;-70
2022/05/29 03:24:39;;;;;;;2.15;0.75;;;;;;;10.14;49.48;95458.97;10366065;28;98774;-68
2022/05/29 03:29:46;;;;;;;2.28;1.00;;;;;;;9.90;49.38;95454.56;10357563;28;98910;-69
2022/05/29 03:34:50;;;;;;;1.40;0.80;;;;;;;9.68;50.74;95469.09;10357671;28;99111;-67
2022/05/29 03:39:53;;;;;;;3.47;1.10;;;;;;;9.50;51.59;95463.19;10362521;28;99953;-69
2022/05/29 03:44:56;;;;;;;3.45;1.05;;;;;;;9.33;51.55;95463.09;10353711;28;97578;-68
2022/05/29 03:50:00;;;;;;;4.10;1.10;;;;;;;9.18;51.88;95462.09;10349864;28;98732;-68
2022/05/29 03:55:04;;;;;;;2.63;0.98;;;;;;;9.03;52.50;95467.91;10366547;28;98399;-69
2022/05/29 04:00:09;;;;;;;2.55;1.13;;;;;;;8.88;53.15;95464.25;10370384;28;98046;-69
2022/05/29 04:05:16;;;;;;;2.97;1.00;;;;;;;8.81;53.48;95463.25;10362245;28;99417;-69
2022/05/29 04:15:48;;;;;;;2.45;0.85;;;;;;;8.59;52.22;95468.03;10285173;28;98462;-69
2022/05/29 04:20:53;;;;;;;4.43;1.10;;;;;;;8.56;53.17;95476.13;10284288;28;97664;-67
2022/05/29 04:25:56;;;;;;;2.25;1.15;;;;;;;8.59;53.72;95469.81;10280944;28;97266;-68
2022/05/29 04:30:59;;;;;;;2.45;0.75;;;;;;;8.58;54.08;95465.56;10282928;28;98587;-69
2022/05/29 04:36:04;;;;;;;1.92;0.90;;;;;;;8.56;54.48;95475.34;10283142;28;103535;-69
2022/05/29 04:41:09;;;;;;;1.55;0.98;;;;;;;8.58;54.54;95474.19;10280446;28;97349;-72
2022/05/29 04:46:12;;;;;;;2.78;1.00;;;;;;;8.67;54.34;95483.69;10284288;28;97230;-72
2022/05/29 04:51:17;;;;;;;2.45;1.08;;;;;;;8.70;54.63;95478.16;10327283;28;97973;-72
2022/05/29 04:56:20;;;;;;;3.95;1.10;;;;;;;8.77;55.06;95473.16;10350689;28;97152;-72
2022/05/29 05:01:23;;;;;;;4.43;0.98;;;;;;;8.86;54.82;95481.81;10355298;28;97865;-72
2022/05/29 05:06:28;;;;;;;3.45;0.93;;;;;;;8.95;54.71;95480.06;10360837;28;98485;-72
2022/05/29 05:11:32;;;;;;;2.72;0.90;;;;;;;9.00;55.00;95481.25;10358602;28;97726;-72
2022/05/29 05:16:35;;;;;;;2.42;0.70;;;;;;;9.17;54.70;95489.94;10368715;28;98423;-71
2022/05/29 05:21:39;;;;;;;1.23;0.70;;;;;;;9.31;54.42;95485.91;10356055;28;99147;-71
2022/05/29 05:26:43;;;;;;;2.60;1.10;;;;;;;9.34;54.12;95488.19;10354431;28;98498;-72
2022/05/29 05:31:46;;;;;;;1.70;0.88;;;;;;;9.42;54.91;95485.66;10361385;28;96890;-71
2022/05/29 05:36:50;;;;;;;2.63;1.00;;;;;;;9.55;55.11;95487.00;10354140;28;98629;-72
2022/05/29 05:41:54;;;;;;;1.97;0.80;;;;;;;9.63;54.81;95484.41;10359057;28;100027;-72
2022/05/29 05:46:57;;;;;;;1.77;0.77;;;;;;;9.72;54.17;95487.84;10364692;28;96836;-72
2022/05/29 05:52:05;;;;;;;3.58;1.10;;;;;;;9.90;53.48;95490.31;10348603;28;98237;-72
2022/05/29 05:57:08;;;;;;;1.35;0.70;;;;;;;10.07;53.03;95484.09;10358094;28;99164;-70
2022/05/29 06:02:11;;;;;;;3.22;1.30;;;;;;;10.27;53.11;95481.16;10355032;28;97655;-72
2022/05/29 06:07:16;;;;;;;4.53;1.23;;;;;;;10.38;52.45;95483.44;10345522;28;98968;-72
2022/05/29 06:12:24;;;;;;;3.10;1.25;;;;;;;10.75;52.77;95492.53;10352237;28;96983;-72
2022/05/29 06:17:28;;;;;;;3.45;1.30;;;;;;;11.04;52.54;95483.28;10353069;28;97635;-68
2022/05/29 06:22:36;;;;;;;2.60;0.90;;;;;;;11.23;51.64;95475.03;10351162;28;96997;-72
2022/05/29 06:27:41;;;;;;;2.17;0.95;;;;;;;11.35;52.11;95476.31;10359404;28;97097;-72
2022/05/29 06:32:44;;;;;;;2.92;1.10;;;;;;;11.61;51.00;95475.22;10357928;28;96994;-72
2022/05/29 06:37:49;;;;;;;4.82;0.90;;;;;;;11.87;50.71;95479.28;10371716;28;96935;-72
2022/05/29 06:42:52;;;;;;;5.07;1.30;;;;;;;12.07;50.17;95480.44;10371349;28;96921;-78
2022/05/29 06:47:55;;;;;;;2.40;1.00;;;;;;;12.23;49.99;95474.28;10366844;28;96790;-68
2022/05/29 06:52:59;;;;;;;3.53;0.95;;;;;;;12.36;49.57;95465.00;10364408;28;99053;-68
2022/05/29 06:58:02;;;;;;;3.37;0.90;;;;;;;12.58;49.42;95482.47;10365606;28;96819;-68
2022/05/29 07:08:31;;;;;;;2.03;0.90;;;;;;;13.23;47.88;95474.91;10365007;28;97024;-69
2022/05/29 07:13:35;;;;;;;1.90;0.90;;;;;;;13.56;46.97;95464.78;10376422;28;96942;-69
2022/05/29 07:18:38;;;;;;;3.03;0.88;;;;;;;13.90;46.49;95471.22;10375030;28;96860;-69
2022/05/29 07:23:42;;;;;;;4.53;0.88;;;;;;;14.06;45.08;95474.59;10368483;28;98041;-69
2022/05/29 07:28:46;;;;;;;2.45;0.95;;;;;;;14.26;45.30;95464.25;10391086;28;97775;-68
2022/05/29 07:33:49;;;;;;;3.80;1.00;;;;;;;14.62;44.69;95463.34;10378756;28;98573;-69
2022/05/29 07:38:54;;;;;;;4.28;1.08;;;;;;;14.86;44.67;95469.97;10370130;28;97174;-70
2022/05/29 07:43:56;;;;;;;3.03;1.10;;;;;;;15.09;43.38;95454.69;10378712;28;96841;-69
2022/05/29 07:48:59;;;;;;;3.75;0.90;;;;;;;15.42;43.70;95461.13;10381357;28;96945;-69
2022/05/29 07:54:04;;;;;;;2.25;0.95;;;;;;;15.66;43.40;95465.88;10381110;28;98144;-69
2022/05/29 07:59:07;;;;;;;;;;;;;;;15.92;43.39;95463.53;10381326;28;96954;-69
2022/05/29 08:04:10;;;;;;;3.85;1.05;;;;;;;15.82;43.12;95459.44;10390536;28;97747;-69
2022/05/29 08:09:15;;;;;;;3.03;0.90;;;;;;;15.82;42.29;95462.06;10380796;28;99305;-69
2022/05/29 08:14:18;;;;;;;;;;;;;;;15.83;42.88;95461.06;10381100;28;97065;-69
2022/05/29 08:19:20;;;;;;;4.75;1.10;;;;;;;15.94;42.18;95456.22;10368191;28;96849;-69
2022/05/29 08:35:20;;;;;;;1.65;0.95;;;;;;;16.56;40.22;95449.75;10358186;28;97068;-70
2022/05/29 08:40:26;;;;;;;2.38;1.00;;;;;;;17.08;38.56;95449.09;10357382;28;96838;-70
2022/05/29 08:45:34;;;;;;;2.95;0.95;;;;;;;17.27;38.46;95444.78;10394116;28;97270;-69
2022/05/29 08:50:43;;;;;;;2.70;0.95;;;;;;;17.18;38.11;95449.47;10379564;28;96827;-69
2022/05/29 08:55:53;;;;;;;1.73;0.93;;;;;;;16.94;37.99;95446.47;10352699;28;96896;-69
2022/05/29 09:01:06;;;;;;;2.05;0.70;;;;;;;17.01;37.77;95459.66;10374581;28;96885;-70
2022/05/29 09:06:13;;;;;;;2.42;0.80;;;;;;;16.98;38.10;95452.16;10372394;28;97319;-70
2022/05/29 09:11:21;;;;;;;2.95;0.93;;;;;;;17.06;37.42;95448.47;10359816;28;97677;-69
2022/05/29 09:16:29;;;;;;;3.35;1.00;;;;;;;17.11;36.86;95451.28;10373173;28;96799;-69
2022/05/29 09:21:46;;;;;;;1.95;1.10;;;;;;;17.31;35.12;95430.91;10364415;28;97405;-69
2022/05/29 09:26:50;;;;;;;2.53;0.85;;;;;;;17.37;34.51;95435.38;10376227;28;97350;-69
2022/05/29 09:31:53;;;;;;;;;;;;;;;17.43;35.20;95427.63;10375963;28;98362;-70
2022/05/29 09:37:07;;;;;;;2.35;1.00;;;;;;;17.46;35.41;95424.59;10374246;27;96805;-70
2022/05/29 09:42:19;;;;;;;2.80;0.75;;;;;;;17.72;34.43;95413.88;10372938;28;96954;-70
2022/05/29 09:52:52;;;;;;;2.13;0.85;;;;;;;18.06;33.97;95425.03;10365907;28;97070;-70
2022/05/29 09:57:59;;;;;;;1.92;0.60;;;;;;;18.43;33.54;95425.16;10366644;28;96977;-70
2022/05/29 10:03:03;;;;;;;3.05;0.90;;;;;;;18.61;33.44;95421.75;10371913;28;97482;-69
2022/05/29 10:08:19;;;;;;;3.53;0.77;;;;;;;18.68;33.51;95424.34;10373937;28;96887;-69
2022/05/29 10:13:38;;;;;;;2.55;0.82;;;;;;;18.35;33.03;95414.88;10368836;27;96975;-70
2022/05/29 10:18:42;;;;;;;3.22;0.95;;;;;;;18.40;32.75;95408.94;10379653;28;96788;-69
2022/05/29 10:23:50;;;;;;;2.22;1.00;;;;;;;18.43;33.24;95406.66;10367954;28;96891;-69
2022/05/29 10:28:54;;;;;;;2.30;1.00;;;;;;;18.10;33.26;95399.81;10389294;28;96857;-70
2022/05/29 10:34:05;;;;;;;2.55;1.13;;;;;;;18.37;33.68;95396.94;10373178;28;97963;-69
2022/05/29 10:39:11;;;;;;;1.55;0.70;;;;;;;18.39;32.96;95400.16;10375504;28;98176;-68
2022/05/29 10:44:40;;;;;;;2.85;1.10;;;;;;;18.33;32.87;95389.69;10364265;28;97590;-70
2022/05/29 10:49:51;;;;;;;2.63;1.08;;;;;;;18.29;32.85;95384.00;10354647;28;96876;-70
2022/05/29 10:55:28;;;;;;;2.33;0.80;;;;;;;18.95;32.33;95371.16;10369913;28;96757;-69
2022/05/29 11:00:41;;;;;;;2.90;1.48;;;;;;;19.36;31.35;95372.28;10380571;28;96962;-69
2022/05/29 11:06:02;;;;;;;1.85;0.80;;;;;;;19.28;31.40;95362.00;10375506;28;100205;-69
2022/05/29 11:11:22;;;;;;;4.13;0.95;;;;;;;19.22;32.24;95351.25;10357841;28;96947;-69
2022/05/29 11:16:34;;;;;;;2.38;1.05;;;;;;;19.59;31.49;95345.91;10383808;28;96821;-70
2022/05/29 11:21:52;;;;;;;2.65;1.10;;;;;;;20.06;30.99;95344.38;10382577;28;96797;-69
2022/05/29 11:27:13;;;;;;;2.85;0.75;;;;;;;20.33;30.45;95339.44;10382263;28;100181;-69
2022/05/29 11:32:27;;;;;;;2.40;0.98;;;;;;;20.43;30.86;95328.25;10365932;28;96839;-70
2022/05/29 11:37:49;;;;;;;3.03;1.00;;;;;;;19.85;30.85;95317.38;10351682;28;97027;-69
2022/05/29 11:42:58;;;;;;;2.08;0.75;;;;;;;20.21;30.45;95326.19;10367470;28;96973;-70
2022/05/29 11:53:33;;;;;;;2.50;1.05;;;;;;;19.96;30.84;95318.47;10381388;28;96873;-69
2022/05/29 11:58:43;;;;;;;3.45;1.13;;;;;;;20.41;30.14;95317.06;10382081;28;96792;-70
2022/05/29 12:03:53;;;;;;;2.65;0.75;;;;;;;20.62;29.34;95313.81;10355745;28;100125;-70
2022/05/29 12:09:05;;;;;;;2.88;0.90;;;;;;;20.75;29.19;95316.25;10356062;28;96880;-70
2022/05/29 12:14:17;;;;;;;2.80;0.80;;;;;;;21.00;29.02;95312.50;10351969;28;98288;-69
2022/05/29 12:19:29;;;;;;;1.95;0.90;;;;;;;21.32;29.11;95304.84;10362287;28;97130;-70
2022/05/29 12:24:35;;;;;;;2.63;1.20;;;;;;;21.85;28.47;95302.84;10365972;27;96932;-70
2022/05/29 12:29:42;;;;;;;3.28;0.80;;;;;;;21.95;28.41;95309.38;10363916;28;97086;-70
2022/05/29 12:34:52;;;;;;;2.17;0.90;;;;;;;21.69;28.00;95298.31;10353484;28;96910;-69
2022/05/29 12:40:18;;;;;;;2.50;0.90;;;;;;;21.17;28.68;95296.59;10363390;28;97457;-69
2022/05/29 12:45:37;;;;;;;3.33;0.93;;;;;;;21.60;27.87;95289.09;10371288;28;96822;-69
2022/05/29 12:51:01;;;;;;;1.63;0.88;;;;;;;21.34;28.59;95279.91;10362984;28;96775;-70
2022/05/29 12:56:11;;;;;;;;;;;;;;;21.11;29.05;95285.06;10366043;28;96893;-69
2022/05/29 13:01:29;;;;;;;1.42;0.80;;;;;;;20.90;28.93;95289.19;10350985;28;96899;-70
2022/05/29 13:06:52;;;;;;;1.85;0.90;;;;;;;21.05;28.24;95280.72;10357137;28;98015;-70
2022/05/29 13:12:00;;;;;;;7.30;0.98;;;;;;;20.85;28.70;95275.81;10374205;28;96960;-70
2022/05/29 13:17:08;;;;;;;2.80;0.70;;;;;;;21.30;28.90;95268.94;10367418;28;97217;-70
2022/05/29 13:22:12;;;;;;;3.83;0.73;;;;;;;21.56;28.66;95266.72;10368949;28;97422;-69
2022/05/29 13:27:29;;;;;;;;;;;;;;;21.23;29.30;95276.25;10367154;28;96841;-70
2022/05/29 13:32:33;;;;;;;1.35;0.65;;;;;;;20.75;29.20;95272.97;10372680;28;98795;-69
2022/05/29 13:37:43;;;;;;;;;;;;;;;20.82;29.60;95272.84;10378597;28;96848;-69
2022/05/29 13:42:49;;;;;;;2.08;0.77;;;;;;;20.89;28.78;95273.50;10354240;28;97101;-69
2022/05/29 13:48:14;;;;;;;2.45;1.02;;;;;;;21.06;28.66;95261.06;10366724;28;96806;-70
2022/05/29 13:53:29;;;;;;;2.47;0.73;;;;;;;21.31;28.63;95265.22;10369751;28;96804;-70
2022/05/29 14:04:06;;;;;;;5.28;1.00;;;;;;;23.03;27.12;95254.91;10243673;28;97054;-70
2022/05/29 14:09:42;;;;;;;2.30;0.70;;;;;;;23.94;26.07;95256.84;10245059;28;102453;-69
2022/05/29 14:14:51;;;;;;;2.58;0.88;;;;;;;23.29;27.08;95251.50;10241035;28;97050;-70
2022/05/29 14:20:08;;;;;;;1.85;0.82;;;;;;;22.54;27.51;95259.16;10243956;28;96997;-70
2022/05/29 14:25:27;;;;;;;1.63;0.65;;;;;;;21.85;28.02;95257.66;10245440;28;100275;-70
2022/05/29 14:30:45;;;;;;;1.05;0.60;;;;;;;21.76;28.36;95248.50;10243749;28;97163;-69
2022/05/29 14:36:01;;;;;;;2.97;1.20;;;;;;;22.57;27.93;95234.72;10244293;28;98107;-70
2022/05/29 14:41:14;;;;;;;2.83;1.38;;;;;;;23.83;26.30;95231.97;10342861;28;96879;-70
2022/05/29 14:46:26;;;;;;;;;;;;;;;23.08;27.52;95236.34;10387318;28;97431;-70
2022/05/29 14:51:39;;;;;;;1.85;0.90;;;;;;;22.55;27.71;95226.19;10373313;28;97990;-70
2022/05/29 14:56:55;;;;;;;2.25;0.80;;;;;;;21.94;28.25;95225.34;10368192;28;96879;-70
2022/05/29 15:02:00;;;;;;;3.97;0.93;;;;;;;22.78;27.77;95229.63;10373712;28;98701;-69
2022/05/29 15:12:29;;;;;;;3.20;1.00;;;;;;;24.03;26.47;95231.28;10367460;28;96999;-70
2022/05/29 15:17:31;;;;;;;1.95;0.73;;;;;;;23.37;27.11;95227.03;10363767;28;101471;-69
2022/05/29 15:27:58;;;;;;;2.03;1.10;;;;;;;21.97;28.06;95215.03;10363515;28;96943;-71
2022/05/29 15:33:04;;;;;;;2.65;1.00;;;;;;;21.70;28.08;95220.19;10350010;28;98624;-71
2022/05/29 15:38:19;;;;;;;1.88;0.93;;;;;;;21.53;28.94;95212.19;10369751;28;97098;-71
2022/05/29 15:43:32;;;;;;;2.92;0.95;;;;;;;21.51;28.24;95211.63;10360232;28;97904;-72
2022/05/29 15:49:08;;;;;;;3.83;0.93;;;;;;;21.23;28.65;95205.34;10364188;28;96837;-71
2022/05/29 15:56:47;;;;;;;1.90;1.00;;;;;;;24.95;26.04;95195.41;10393572;27;96749;-69
2022/05/29 16:01:59;;;;;;;1.92;0.98;;;;;;;27.18;23.74;95190.16;10397846;27;97446;-69
2022/05/29 16:07:03;;;;;;;3.72;0.95;;;;;;;25.85;24.64;95186.91;10391306;28;97807;-69
2022/05/29 16:12:16;;;;;;;2.30;0.90;;;;;;;24.18;26.33;95187.13;10407196;28;96856;-70
2022/05/29 16:17:32;;;;;;;1.80;0.93;;;;;;;22.86;27.56;95188.47;10388436;28;98072;-71
2022/05/29 16:22:53;;;;;;;3.10;1.00;;;;;;;22.19;28.38;95183.13;10400791;28;97226;-72
2022/05/29 16:28:18;;;;;;;2.55;0.98;;;;;;;21.69;28.67;95184.03;10393759;27;98570;-69
2022/05/29 16:33:24;;;;;;;3.33;0.80;;;;;;;21.27;28.89;95187.06;10401103;28;98910;-70
2022/05/29 16:49:29;;;;;;;3.90;1.02;;;;;;;20.86;29.46;95183.72;10400414;28;100760;-68
2022/05/29 16:54:42;;;;;;;1.60;0.93;;;;;;;20.67;29.68;95188.38;10405539;28;97066;-69
2022/05/29 16:59:50;;;;;;;1.88;1.00;;;;;;;20.21;30.70;95182.19;10402560;28;97200;-69
2022/05/29 17:05:01;;;;;;;1.77;0.98;;;;;;;21.39;28.47;95184.34;10390622;28;96925;-69
2022/05/29 17:10:15;;;;;;;2.30;1.10;;;;;;;21.82;28.21;95181.03;10376252;28;96875;-69
2022/05/29 17:15:21;;;;;;;2.03;0.82;;;;;;;20.69;29.04;95189.75;10357223;28;96835;-69
2022/05/29 17:20:26;;;;;;;3.60;0.90;;;;;;;19.87;30.28;95177.50;10365811;28;97039;-69
2022/05/29 17:25:32;;;;;;;;;;;;;;;19.48;30.18;95182.44;10369627;28;96861;-69
2022/05/29 17:30:42;;;;;;;2.28;1.00;;;;;;;19.15;32.15;95178.47;10370508;28;96869;-67
2022/05/29 17:35:49;;;;;;;2.42;1.10;;;;;;;18.86;32.67;95177.47;10369498;28;96974;-68
2022/05/29 17:40:56;;;;;;;3.42;1.20;;;;;;;18.69;32.43;95182.59;10375626;28;98805;-67
2022/05/29 17:46:06;;;;;;;2.63;0.98;;;;;;;18.39;33.22;95180.69;10370457;28;100207;-67
2022/05/29 17:51:19;;;;;;;1.90;0.88;;;;;;;18.15;33.80;95181.59;10366574;28;97341;-68
2022/05/29 17:56:27;;;;;;;2.30;1.07;;;;;;;18.25;33.16;95179.25;10370791;28;97004;-67
2022/05/29 18:01:31;;;;;;;2.53;1.10;;;;;;;19.87;31.76;95172.22;10366614;28;100231;-67
2022/05/29 18:06:35;;;;;;;1.30;0.73;;;;;;;19.83;32.16;95181.66;10370665;28;98455;-68
2022/05/29 18:11:42;;;;;;;2.03;0.90;;;;;;;18.72;32.53;95186.59;10375024;28;96918;-67
2022/05/29 18:16:47;;;;;;;2.45;1.10;;;;;;;17.88;33.80;95181.91;10371780;28;98061;-67
2022/05/29 18:21:49;;;;;;;3.28;0.95;;;;;;;17.26;34.22;95176.56;10376573;28;98989;-67
2022/05/29 18:27:01;;;;;;;1.42;0.80;;;;;;;16.81;34.96;95182.75;10370166;28;97014;-68
2022/05/29 18:32:07;;;;;;;3.13;1.00;;;;;;;16.48;35.23;95173.16;10374038;28;97922;-68
2022/05/29 18:37:11;;;;;;;3.80;1.20;;;;;;;16.24;35.00;95178.16;10374723;28;96879;-67
2022/05/29 18:42:13;;;;;;;2.30;1.10;;;;;;;15.96;35.68;95175.00;10374095;28;96907;-67
2022/05/29 18:47:18;;;;;;;1.88;1.02;;;;;;;15.62;36.85;95176.91;10369024;28;98405;-67
2022/05/29 18:52:22;;;;;;;6.90;1.17;;;;;;;15.41;36.62;95173.47;10367385;28;97246;-67
2022/05/29 18:57:25;;;;;;;1.85;1.20;;;;;;;15.23;37.30;95168.00;10370708;28;98628;-67
2022/05/29 19:02:30;;;;;;;4.57;1.65;;;;;;;15.07;37.51;95172.63;10368511;28;99428;-67
2022/05/29 19:07:33;;;;;;;2.25;1.08;;;;;;;14.93;37.87;95181.53;10362763;28;97205;-68
2022/05/29 19:12:36;;;;;;;1.77;1.10;;;;;;;14.81;37.22;95189.19;10365751;28;98014;-67
2022/05/29 19:23:01;;;;;;;2.25;0.95;;;;;;;14.59;38.30;95190.38;10386095;28;97204;-67
2022/05/29 19:28:05;;;;;;;2.35;1.08;;;;;;;14.39;38.40;95179.81;10363380;28;96859;-67
2022/05/29 19:33:10;;;;;;;6.37;1.43;;;;;;;14.14;39.70;95183.72;10359812;28;99615;-67
2022/05/29 19:38:13;;;;;;;3.17;1.17;;;;;;;13.97;40.07;95192.94;10352359;28;96895;-67
2022/05/29 19:43:16;;;;;;;3.53;1.30;;;;;;;13.86;40.33;95202.16;10373883;28;97864;-67
2022/05/29 19:48:20;;;;;;;3.42;1.40;;;;;;;13.75;40.45;95202.72;10355080;28;97819;-67
2022/05/29 19:53:23;;;;;;;2.60;1.10;;;;;;;13.66;40.74;95206.50;10373205;28;97135;-68
2022/05/29 19:58:26;;;;;;;5.05;1.00;;;;;;;13.56;41.16;95210.25;10372787;28;96837;-67
2022/05/29 20:03:31;;;;;;;2.72;1.02;;;;;;;13.44;42.03;95203.91;10371746;28;96936;-68
2022/05/29 20:08:36;;;;;;;2.05;0.95;;;;;;;13.35;41.87;95203.25;10370813;28;96907;-68
2022/05/29 20:13:39;;;;;;;3.13;1.00;;;;;;;13.32;42.10;95205.44;10374582;28;97418;-68
2022/05/29 20:18:43;;;;;;;3.78;1.20;;;;;;;13.28;42.21;95204.22;10363384;28;98404;-68
2022/05/29 20:23:46;;;;;;;1.95;1.00;;;;;;;13.23;42.24;95212.63;10357311;28;97501;-68
2022/05/29 20:28:49;;;;;;;1.48;1.13;;;;;;;13.29;42.32;95219.75;10359946;28;96901;-68
2022/05/29 20:33:54;;;;;;;1.98;1.02;;;;;;;13.23;42.21;95228.38;10363319;28;98457;-68
2022/05/29 20:38:57;;;;;;;3.92;0.98;;;;;;;13.18;42.64;95220.25;10359588;28;98718;-68
2022/05/29 20:44:00;;;;;;;1.85;1.10;;;;;;;13.13;42.90;95227.88;10364580;28;97590;-68
2022/05/29 20:49:07;;;;;;;3.75;1.20;;;;;;;13.06;42.89;95238.31;10370034;28;97526;-68
2022/05/29 20:54:14;;;;;;;2.72;1.10;;;;;;;13.01;43.13;95236.25;10367487;28;97971;-68
2022/05/29 20:59:19;;;;;;;2.50;1.10;;;;;;;12.98;43.31;95235.81;10361801;28;97715;-68
2022/05/29 21:04:24;;;;;;;;;;;;;;;12.88;42.76;95234.28;10362913;28;99105;-68
2022/05/29 21:09:28;;;;;;;2.85;1.20;;;;;;;12.83;43.35;95226.16;10365183;28;97811;-68
2022/05/29 21:14:30;;;;;;;3.17;1.20;;;;;;;12.82;43.40;95229.78;10363684;28;98260;-68
2022/05/29 21:19:35;;;;;;;1.98;1.10;;;;;;;12.77;43.71;95229.53;10366489;28;98180;-68
2022/05/29 21:24:38;;;;;;;2.17;1.03;;;;;;;12.74;43.46;95229.09;10363038;28;97664;-69
2022/05/29 21:29:41;;;;;;;4.90;1.30;;;;;;;12.70;43.48;95223.41;10365983;28;99056;-69
2022/05/29 21:34:45;;;;;;;2.40;1.02;;;;;;;12.69;43.54;95216.53;10361012;28;97624;-69
2022/05/29 21:39:49;;;;;;;3.30;1.20;;;;;;;12.67;43.39;95219.34;10366697;28;98605;-69
2022/05/29 21:44:52;;;;;;;3.20;1.20;;;;;;;12.68;43.53;95222.78;10361049;28;98591;-69
2022/05/29 21:49:56;;;;;;;2.58;1.17;;;;;;;12.65;43.67;95220.53;10354958;28;97678;-69
2022/05/29 21:54:59;;;;;;;2.30;1.10;;;;;;;12.67;43.78;95235.06;10369842;28;101147;-69
2022/05/29 22:00:07;;;;;;;4.60;1.10;;;;;;;12.71;43.47;95240.75;10370496;28;98161;-69
2022/05/29 22:05:12;;;;;;;1.42;0.90;;;;;;;12.76;43.49;95233.16;10372404;28;103046;-68
2022/05/29 22:10:15;;;;;;;3.10;1.20;;;;;;;12.80;43.32;95229.16;10361820;28;97424;-69
2022/05/29 22:15:18;;;;;;;2.05;1.02;;;;;;;12.82;43.52;95236.81;10356849;28;99310;-69
2022/05/29 22:20:22;;;;;;;2.47;1.08;;;;;;;12.81;44.09;95233.41;10364153;28;99164;-70
2022/05/29 22:25:25;;;;;;;;;;;;;;;12.74;43.88;95234.34;10369219;28;98618;-69
2022/05/29 22:30:30;;;;;;;3.63;1.00;;;;;;;12.71;43.99;95230.28;10363017;28;101321;-68
2022/05/29 22:35:37;;;;;;;3.90;1.20;;;;;;;12.73;44.14;95233.50;10363038;28;98609;-69
2022/05/29 22:40:40;;;;;;;3.58;1.17;;;;;;;12.75;44.55;95239.41;10355769;28;98549;-69
2022/05/29 22:45:47;;;;;;;2.33;1.10;;;;;;;12.72;45.01;95231.91;10364738;28;97995;-68
2022/05/29 22:50:51;;;;;;;2.53;1.10;;;;;;;12.69;45.08;95237.50;10360536;28;98325;-68
2022/05/29 22:55:54;;;;;;;2.57;1.07;;;;;;;12.71;44.83;95232.09;10361296;28;98669;-68
2022/05/29 23:00:57;;;;;;;2.58;1.48;;;;;;;12.70;44.99;95231.28;10361322;28;98433;-68
2022/05/29 23:06:02;;;;;;;1.50;0.77;;;;;;;12.68;45.29;95226.22;10359535;28;99297;-69
2022/05/29 23:11:12;;;;;;;2.08;1.23;;;;;;;12.65;45.44;95221.34;10358098;28;97189;-69
2022/05/29 23:16:14;;;;;;;4.82;1.80;;;;;;;12.60;45.55;95222.91;10357711;28;97849;-69
2022/05/29 23:21:20;;;;;;;2.38;1.30;;;;;;;12.59;45.95;95221.28;10359709;28;98444;-69
2022/05/29 23:26:23;;;;;;;;;;;;;;;12.59;45.27;95208.19;10363652;28;97240;-69
2022/05/29 23:31:27;;;;;;;2.60;1.33;;;;;;;12.59;45.88;95216.03;10363726;28;99663;-69
2022/05/29 23:36:31;;;;;;;4.68;1.20;;;;;;;12.58;45.68;95215.22;10357228;28;98760;-69
2022/05/29 23:46:57;;;;;;;4.97;1.50;;;;;;;12.58;46.03;95225.72;10363893;28;99174;-70
2022/05/29 23:52:02;;;;;;;3.33;1.23;;;;;;;12.60;46.37;95228.94;10357543;28;99479;-69
2022/05/29 23:57:05;;;;;;;3.25;1.90;;;;;;;12.56;46.40;95219.84;10354698;28;99460;-69
